Time;durP1;ratioP1;P1;durP2;ratioP2;P2;SDS_P1;SDS_P2;PMS_P1;PMS_P2;Temp;Humidity;BMP_temperature;BMP_pressure;BME280_temperature;BME280_humidity;BME280_pressure;Samples;Min_cycle;Max_cycle;Signal;HPM_P1;HPM_P2
2022/03/13 03:21:59;;;;;;;;;;;;;;;;;;;;;
2022/03/13 03:42:54;;;;;;;47.13;27.30;;;90.30;2176.00;;;;;;4671857;30;20184;-77
2022/03/13 04:30:21;;;;;;;;;;;;;;;;;;;;;
2022/03/13 04:36:40;;;;;;;64.68;29.80;;;115.20;2176.00;;;;;;4880587;29;20046;-76
2022/03/13 04:50:06;;;;;;;74.10;33.15;;;115.70;2176.00;;;;;;4858973;29;20052;-77
2022/03/13 04:53:10;;;;;;;85.20;39.15;;;115.80;2176.00;;;;;;4889130;29;20080;-77
2022/03/13 05:13:45;;;;;;;66.75;29.25;;;115.80;2176.00;;;;;;4731537;29;20083;-77
2022/03/13 05:30:52;;;;;;;51.03;25.80;;;115.70;2176.00;;;;;;4695590;30;20032;-77
2022/03/13 05:37:24;;;;;;;36.13;22.23;;;115.90;2176.00;;;;;;4741402;30;20657;-77
2022/03/13 05:41:02;;;;;;;43.10;23.27;;;115.90;2176.00;;;;;;4746271;30;20131;-76
2022/03/13 05:43:41;;;;;;;;;;;;;;;;;;;;;
2022/03/13 05:46:19;;;;;;;102.25;55.30;;;115.90;2176.00;;;;;;4765429;30;20080;-77
2022/03/13 05:48:50;;;;;;;103.28;54.35;;;115.90;2176.00;;;;;;4781966;29;20030;-77
2022/03/13 05:51:27;;;;;;;93.05;47.58;;;140.80;2176.00;;;;;;4852711;29;20040;-77
2022/03/13 05:53:54;;;;;;;86.88;42.42;;;116.10;2176.00;;;;;;4852555;29;20045;-77
2022/03/13 05:56:36;;;;;;;72.68;39.15;;;116.10;2176.00;;;;;;4853013;29;20034;-77
2022/03/13 05:59:15;;;;;;;;;;;;;;;;;;;;;
2022/03/13 06:01:42;;;;;;;60.78;32.03;;;116.00;2176.00;;;;;;4872555;29;20085;-77
2022/03/13 06:04:08;;;;;;;58.92;31.92;;;116.00;2176.00;;;;;;4873232;29;20033;-78
2022/03/13 06:06:37;;;;;;;72.50;36.92;;;115.90;2176.00;;;;;;4893235;29;20163;-77
2022/03/13 06:09:06;;;;;;;88.60;42.55;;;115.80;2176.00;;;;;;4887035;29;20542;-76
2022/03/13 06:11:32;;;;;;;78.18;40.35;;;115.80;2176.00;;;;;;4887644;29;20080;-77
2022/03/13 06:13:57;;;;;;;65.70;38.67;;;115.70;2176.00;;;;;;4887706;29;20483;-77
2022/03/13 06:16:24;;;;;;;45.90;26.48;;;115.80;2176.00;;;;;;4887445;29;20060;-78
2022/03/13 06:18:50;;;;;;;80.57;59.72;;;115.90;2176.00;;;;;;4887056;29;20042;-77
2022/03/13 06:21:16;;;;;;;78.93;48.22;;;116.10;2176.00;;;;;;4886876;29;20378;-77
2022/03/13 06:23:42;;;;;;;68.10;36.60;;;116.00;2176.00;;;;;;4886670;29;20035;-76
2022/03/13 06:26:09;;;;;;;68.63;37.08;;;116.00;2176.00;;;;;;4886945;29;20027;-77
2022/03/13 06:28:35;;;;;;;73.15;36.42;;;115.90;2176.00;;;;;;4887524;29;20032;-78
2022/03/13 06:31:01;;;;;;;86.88;46.55;;;115.90;2176.00;;;;;;4887495;29;20447;-77
2022/03/13 06:33:30;;;;;;;57.97;29.75;;;115.80;2176.00;;;;;;4887516;29;20088;-77
2022/03/13 06:35:59;;;;;;;106.53;54.40;;;115.70;2176.00;;;;;;4887027;29;20460;-77
2022/03/13 06:38:25;;;;;;;95.32;48.53;;;115.40;2176.00;;;;;;4887668;29;20029;-77
2022/03/13 06:40:51;;;;;;;83.43;41.75;;;115.40;2176.00;;;;;;4886939;29;20028;-76
2022/03/13 06:43:17;;;;;;;135.55;57.97;;;115.30;2176.00;;;;;;4885669;29;20053;-77
2022/03/13 06:45:44;;;;;;;111.13;48.30;;;115.60;2176.00;;;;;;4887231;29;20156;-77
2022/03/13 06:48:15;;;;;;;57.88;32.08;;;90.50;2176.00;;;;;;4887707;29;20035;-76
2022/03/13 06:50:42;;;;;;;97.50;58.05;;;90.50;2176.00;;;;;;4888039;29;20036;-76
2022/03/13 06:53:10;;;;;;;92.40;53.38;;;90.30;2176.00;;;;;;4888543;29;20024;-77
2022/03/13 06:55:41;;;;;;;71.85;40.13;;;90.20;2176.00;;;;;;4888815;29;20020;-78
2022/03/13 06:58:10;;;;;;;47.95;29.23;;;90.20;2176.00;;;;;;4890144;29;20028;-76
2022/03/13 07:00:50;;;;;;;60.60;33.65;;;90.10;2176.00;;;;;;4887336;29;20020;-77
2022/03/13 07:03:19;;;;;;;62.40;35.70;;;90.00;2176.00;;;;;;4888288;29;20076;-77
2022/03/13 07:05:47;;;;;;;53.75;30.50;;;89.90;2176.00;;;;;;4888417;29;20025;-77
2022/03/13 07:08:14;;;;;;;53.35;29.85;;;89.80;2176.00;;;;;;4889505;29;20025;-76
2022/03/13 07:11:05;;;;;;;51.47;29.85;;;89.90;2176.00;;;;;;4890266;29;20483;-77
2022/03/13 07:13:34;;;;;;;49.33;32.80;;;89.90;2176.00;;;;;;4889109;29;20024;-77
2022/03/13 07:16:03;;;;;;;43.20;23.50;;;89.80;2176.00;;;;;;4905402;29;20028;-77
2022/03/13 07:22:10;;;;;;;46.05;27.75;;;89.60;2201.60;;;;;;4907105;29;20044;-77
2022/03/13 07:24:47;;;;;;;42.28;26.73;;;89.60;2201.60;;;;;;4888738;29;20040;-77
2022/03/13 07:27:36;;;;;;;49.05;31.67;;;64.80;2201.60;;;;;;4891063;29;20048;-77
2022/03/13 07:30:12;;;;;;;52.22;31.90;;;64.60;2201.60;;;;;;4876809;29;20428;-77
2022/03/13 07:32:40;;;;;;;43.55;27.88;;;64.40;2201.60;;;;;;4891507;29;20040;-76
2022/03/13 07:35:07;;;;;;;47.33;28.48;;;64.30;2201.60;;;;;;4891173;29;20119;-76
2022/03/13 07:40:54;;;;;;;40.60;22.85;;;64.10;2201.60;;;;;;4897393;29;20035;-76
2022/03/13 07:43:19;;;;;;;40.85;25.10;;;64.00;2201.60;;;;;;4890397;29;20082;-76
2022/03/13 07:45:51;;;;;;;43.30;27.38;;;39.30;2201.60;;;;;;4892855;29;20439;-76
2022/03/13 07:51:49;;;;;;;39.13;22.67;;;39.10;2201.60;;;;;;4830942;29;20497;-76
2022/03/13 08:01:16;;;;;;;40.67;22.83;;;38.50;2201.60;;;;;;4847504;29;20121;-78
2022/03/13 08:04:33;;;;;;;97.28;49.70;;;38.40;2201.60;;;;;;4888836;29;20017;-78
2022/03/13 08:07:15;;;;;;;57.53;30.23;;;38.40;2201.60;;;;;;4871369;29;20029;-80
2022/03/13 08:13:18;;;;;;;48.47;28.55;;;38.60;2201.60;;;;;;4880647;29;20416;-79
2022/03/13 08:23:00;;;;;;;58.42;36.08;;;13.10;2201.60;;;;;;4842204;29;20429;-82
2022/03/13 08:30:12;;;;;;;30.83;20.02;;;13.00;2201.60;;;;;;4822913;29;20386;-81
2022/03/13 08:36:57;;;;;;;33.47;20.33;;;0.50;2201.60;;;;;;4751138;30;20147;-82
2022/03/13 08:39:23;;;;;;;44.53;25.42;;;0.60;2201.60;;;;;;4731530;30;20068;-83
2022/03/13 08:41:49;;;;;;;33.80;19.42;;;0.80;2201.60;;;;;;4771353;30;20535;-83
2022/03/13 08:44:15;;;;;;;56.05;31.58;;;0.70;2201.60;;;;;;4846730;29;20046;-81
2022/03/13 08:46:40;;;;;;;55.78;33.78;;;0.70;2201.60;;;;;;4843622;29;20024;-82
2022/03/13 08:49:09;;;;;;;46.35;28.23;;;0.90;2201.60;;;;;;4844153;29;20037;-81
2022/03/13 08:51:35;;;;;;;44.33;27.98;;;25.70;2201.60;;;;;;4844087;29;20530;-83
2022/03/13 08:54:34;;;;;;;;;;;;;;;;;;;;;
2022/03/13 09:17:53;;;;;;;42.22;24.80;;;51.50;2227.20;;;;;;4898905;29;20023;-79
2022/03/13 09:20:20;;;;;;;60.80;30.98;;;51.60;2227.20;;;;;;4905270;29;20020;-80
2022/03/13 09:22:46;;;;;;;45.67;28.77;;;51.70;2201.60;;;;;;4900076;29;20028;-79
2022/03/13 09:25:13;;;;;;;38.42;22.23;;;51.80;2227.20;;;;;;4882721;29;20024;-82
2022/03/13 09:27:38;;;;;;;40.55;26.33;;;51.70;2227.20;;;;;;4882374;29;20021;-84
2022/03/13 09:30:08;;;;;;;55.72;31.75;;;51.90;2201.60;;;;;;4881710;29;20024;-82
2022/03/13 09:32:36;;;;;;;45.20;28.58;;;52.00;2176.00;;;;;;4881656;29;20035;-80
2022/03/13 09:35:02;;;;;;;51.72;29.23;;;76.80;2150.40;;;;;;4881653;29;20525;-79
2022/03/13 10:08:35;;;;;;;33.97;19.13;;;102.70;2073.60;;;;;;4854556;29;20157;-82
2022/03/13 10:14:13;;;;;;;26.60;19.52;;;102.80;2022.40;;;;;;4898246;29;20033;-80
2022/03/13 10:16:50;;;;;;;39.25;25.98;;;102.90;1996.80;;;;;;4881952;29;20084;-81
2022/03/13 10:19:26;;;;;;;38.33;23.35;;;102.80;1996.80;;;;;;4884669;29;20036;-80
2022/03/13 10:22:05;;;;;;;33.83;20.40;;;103.00;1996.80;;;;;;4884553;29;20463;-83
2022/03/13 10:24:44;;;;;;;37.88;27.23;;;103.00;1996.80;;;;;;4901219;29;20020;-78
2022/03/13 10:27:14;;;;;;;37.88;27.55;;;103.10;1996.80;;;;;;4884848;29;20359;-75
2022/03/13 10:29:42;;;;;;;38.58;24.27;;;103.20;1996.80;;;;;;4884549;29;20127;-79
2022/03/13 10:32:09;;;;;;;40.78;23.27;;;103.30;1971.20;;;;;;4884194;29;20033;-77
2022/03/13 10:34:36;;;;;;;50.25;35.88;;;103.30;1945.60;;;;;;4901523;29;20060;-79
2022/03/13 10:37:02;;;;;;;40.65;27.90;;;103.30;1945.60;;;;;;4884539;29;20020;-78
2022/03/13 10:39:29;;;;;;;55.28;47.20;;;103.30;1945.60;;;;;;4901000;29;20024;-76
2022/03/13 10:42:02;;;;;;;34.10;24.77;;;128.00;1971.20;;;;;;4884469;29;20123;-80
2022/03/13 10:44:34;;;;;;;29.30;20.10;;;128.00;1971.20;;;;;;4901564;29;20379;-82
2022/03/13 10:53:47;;;;;;;44.35;27.00;;;128.10;1996.80;;;;;;4900714;29;20547;-80
2022/03/13 10:56:54;;;;;;;40.95;21.48;;;128.20;1971.20;;;;;;4884213;29;20025;-82
2022/03/13 10:59:20;;;;;;;32.00;19.15;;;128.30;1945.60;;;;;;4883898;29;20096;-80
2022/03/13 11:12:23;;;;;;;29.40;19.02;;;128.80;1945.60;;;;;;4900728;29;20040;-80
2022/03/13 12:04:29;;;;;;;58.25;35.35;;;179.90;1868.80;;;;;;4843723;29;20073;-78
2022/03/13 12:06:57;;;;;;;41.17;26.85;;;180.00;1817.60;;;;;;4824058;29;20477;-79
2022/03/13 12:09:30;;;;;;;37.13;22.65;;;180.00;1843.20;;;;;;4826058;29;20069;-79
2022/03/13 12:11:56;;;;;;;;;;;180.10;1843.20;;;;;;4845567;29;20037;-78
2022/03/13 12:14:50;;;;;;;37.25;23.20;;;180.10;1843.20;;;;;;4888094;29;20266;-80
2022/03/13 12:17:16;;;;;;;36.97;22.40;;;180.10;1843.20;;;;;;4895881;29;20539;-78
2022/03/13 12:19:46;;;;;;;102.85;50.63;;;180.10;1843.20;;;;;;4891330;29;20024;-78
2022/03/13 12:22:15;;;;;;;39.50;22.92;;;180.10;1817.60;;;;;;4897965;29;20063;-79
2022/03/13 12:24:52;;;;;;;46.85;28.42;;;180.10;1740.80;;;;;;4897075;29;20538;-77
2022/03/13 12:27:18;;;;;;;31.83;18.88;;;180.10;1740.80;;;;;;4897957;29;20036;-78
2022/03/13 12:29:55;;;;;;;28.23;16.88;;;180.10;1715.20;;;;;;4897842;29;20027;-77
2022/03/13 12:32:34;;;;;;;27.60;16.75;;;180.10;1689.60;;;;;;4897473;29;20099;-78
2022/03/13 12:35:04;;;;;;;50.42;31.90;;;204.80;1740.80;;;;;;4897802;29;20029;-79
2022/03/13 12:37:30;;;;;;;37.85;25.65;;;205.00;1766.40;;;;;;4897276;29;20028;-76
2022/03/13 12:39:58;;;;;;;23.55;16.67;;;205.10;1792.00;;;;;;4891443;29;20075;-80
2022/03/13 12:42:27;;;;;;;30.63;17.88;;;205.20;1740.80;;;;;;4881494;29;20080;-80
2022/03/13 12:45:11;;;;;;;30.65;19.83;;;205.00;1638.40;;;;;;4881839;29;20025;-78
2022/03/13 12:47:47;;;;;;;23.30;16.05;;;205.20;1664.00;;;;;;4881925;29;20028;-79
2022/03/13 12:50:15;;;;;;;24.60;13.90;;;205.30;1664.00;;;;;;4898949;29;20032;-81
2022/03/13 12:53:03;;;;;;;21.10;13.57;;;205.70;1612.80;;;;;;4881779;29;20095;-84
2022/03/13 12:55:40;;;;;;;;;;;;;;;;;;;;;
2022/03/13 13:09:28;;;;;;;16.83;11.57;;;256.50;1408.00;;;;;;4841186;29;20029;-81
2022/03/13 14:05:37;;;;;;;41.92;27.65;;;205.30;1510.40;;;;;;4914714;29;20570;-82
2022/03/13 14:51:42;;;;;;;33.33;19.27;;;180.10;1587.20;;;;;;5830120;23;20126;-83
2022/03/13 15:04:24;;;;;;;32.35;19.63;;;204.80;1612.80;;;;;;4899860;29;20024;-82
2022/03/13 16:02:15;;;;;;;65.07;42.90;;;179.80;1792.00;;;;;;4890559;28;20113;-81
2022/03/13 16:04:41;;;;;;;63.28;41.63;;;179.70;1766.40;;;;;;4864343;29;20036;-81
2022/03/13 16:07:07;;;;;;;94.38;62.40;;;179.70;1792.00;;;;;;4881097;29;20029;-80
2022/03/13 16:09:33;;;;;;;103.22;68.72;;;179.70;1792.00;;;;;;4864603;29;20035;-84
2022/03/13 16:12:00;;;;;;;94.18;59.58;;;179.60;1817.60;;;;;;4880818;29;20464;-80
2022/03/13 16:14:27;;;;;;;86.53;57.85;;;179.50;1868.80;;;;;;4864373;29;20123;-80
2022/03/13 16:16:54;;;;;;;93.88;64.43;;;179.50;1920.00;;;;;;4864457;29;20117;-81
2022/03/13 16:19:20;;;;;;;99.10;68.65;;;179.40;1945.60;;;;;;4881016;29;20111;-82
2022/03/13 16:21:48;;;;;;;108.78;76.15;;;179.30;1971.20;;;;;;4881214;29;20064;-83
2022/03/13 16:24:19;;;;;;;107.30;72.25;;;179.20;1996.80;;;;;;4864217;29;20527;-83
2022/03/13 16:26:47;;;;;;;101.90;69.05;;;154.50;1996.80;;;;;;4864080;29;20455;-79
2022/03/13 16:29:13;;;;;;;125.03;83.55;;;154.50;2022.40;;;;;;4894583;29;20024;-82
2022/03/13 16:31:39;;;;;;;113.28;79.78;;;154.40;2022.40;;;;;;4898138;29;20463;-81
2022/03/13 16:34:05;;;;;;;115.45;75.30;;;154.30;2022.40;;;;;;4897919;29;20025;-82
2022/03/13 16:36:31;;;;;;;98.38;67.60;;;154.20;1996.80;;;;;;4898408;29;20084;-83
2022/03/13 16:38:57;;;;;;;143.50;91.55;;;154.20;1996.80;;;;;;4897962;29;20033;-82
2022/03/13 16:41:23;;;;;;;112.22;72.38;;;154.10;1996.80;;;;;;4897869;29;20037;-81
2022/03/13 16:43:48;;;;;;;131.07;76.68;;;154.00;1996.80;;;;;;4898092;29;20021;-81
2022/03/13 16:46:17;;;;;;;138.05;86.75;;;154.00;1996.80;;;;;;4897596;29;20036;-82
2022/03/13 16:48:42;;;;;;;117.82;72.25;;;154.00;1996.80;;;;;;4897971;29;20064;-80
2022/03/13 16:51:11;;;;;;;101.03;65.57;;;153.90;1996.80;;;;;;4897904;29;20458;-81
2022/03/13 16:53:38;;;;;;;110.15;70.20;;;153.80;2048.00;;;;;;4898764;29;20410;-82
2022/03/13 16:56:07;;;;;;;106.85;67.68;;;153.80;2048.00;;;;;;4899419;29;20366;-82
2022/03/13 16:58:32;;;;;;;118.82;73.75;;;153.70;2022.40;;;;;;4897729;29;20379;-81
2022/03/13 17:00:58;;;;;;;105.18;67.68;;;153.70;2048.00;;;;;;4897416;29;20045;-82
2022/03/13 17:03:25;;;;;;;120.97;74.63;;;153.60;2048.00;;;;;;4897771;29;20455;-84
2022/03/13 17:12:23;;;;;;;174.65;111.18;;;128.70;2099.20;;;;;;4883035;29;20386;-81
2022/03/13 17:15:24;;;;;;;;;;;;;;;;;;;;;
2022/03/13 17:25:21;;;;;;;;;;;;;;;;;;;;;
2022/03/13 17:31:09;;;;;;;136.27;87.05;;;128.40;2176.00;;;;;;4899580;29;20044;-80
2022/03/13 17:33:35;;;;;;;152.25;100.22;;;128.30;2227.20;;;;;;4897601;29;20021;-76
2022/03/13 17:36:01;;;;;;;168.15;108.43;;;128.10;2227.20;;;;;;4897213;29;20080;-77
2022/03/13 17:38:27;;;;;;;158.45;105.22;;;128.00;2227.20;;;;;;4897299;29;20111;-79
2022/03/13 17:40:53;;;;;;;149.98;99.25;;;128.00;2227.20;;;;;;4898965;29;20370;-77
2022/03/13 17:43:20;;;;;;;160.15;101.03;;;103.30;2227.20;;;;;;4896840;29;20467;-73
2022/03/13 17:45:46;;;;;;;122.30;80.20;;;103.30;2227.20;;;;;;4898488;29;20065;-79
2022/03/13 17:48:37;;;;;;;118.82;76.75;;;103.20;2227.20;;;;;;4897269;29;20021;-83
2022/03/13 17:51:02;;;;;;;119.90;76.47;;;103.20;2227.20;;;;;;4896897;29;20133;-81
2022/03/13 17:53:28;;;;;;;134.23;78.60;;;103.10;2227.20;;;;;;4897281;29;20029;-81
2022/03/13 17:55:54;;;;;;;194.90;112.55;;;103.00;2227.20;;;;;;4897308;29;20049;-76
2022/03/13 17:58:21;;;;;;;190.82;113.80;;;103.00;2227.20;;;;;;4896575;29;20400;-77
2022/03/13 18:00:47;;;;;;;163.25;98.80;;;102.90;2227.20;;;;;;4898515;29;20021;-77
2022/03/13 18:03:13;;;;;;;140.52;90.70;;;102.90;2227.20;;;;;;4900045;29;20084;-75
2022/03/13 18:05:38;;;;;;;149.13;93.18;;;102.80;2227.20;;;;;;4900126;29;20474;-78
2022/03/13 18:08:04;;;;;;;125.28;78.68;;;102.80;2227.20;;;;;;4916802;29;20098;-79
2022/03/13 18:10:30;;;;;;;96.13;60.72;;;102.70;2227.20;;;;;;4899864;29;20024;-76
2022/03/13 18:12:56;;;;;;;78.35;50.70;;;102.70;2227.20;;;;;;4900077;29;20032;-80
2022/03/13 18:15:22;;;;;;;69.18;45.75;;;102.60;2227.20;;;;;;4900104;29;20028;-77
2022/03/13 18:17:48;;;;;;;52.03;34.22;;;102.60;2227.20;;;;;;4899760;29;20032;-77
2022/03/13 18:20:13;;;;;;;48.95;32.00;;;102.60;2227.20;;;;;;4900032;29;20024;-77
2022/03/13 18:22:39;;;;;;;41.55;26.27;;;102.50;2227.20;;;;;;4900024;29;20153;-77
2022/03/13 18:25:06;;;;;;;53.70;32.33;;;102.50;2227.20;;;;;;4899701;29;20031;-78
2022/03/13 18:27:32;;;;;;;88.97;45.47;;;102.40;2227.20;;;;;;4899960;29;20367;-80
2022/03/13 18:29:58;;;;;;;77.18;44.58;;;77.70;2227.20;;;;;;4900027;29;20032;-77
2022/03/13 18:32:24;;;;;;;80.72;49.53;;;77.70;2227.20;;;;;;4899646;29;20370;-77
2022/03/13 18:34:50;;;;;;;109.93;68.43;;;77.70;2227.20;;;;;;4899855;29;20032;-78
2022/03/13 18:37:16;;;;;;;110.53;71.43;;;77.70;2227.20;;;;;;4899822;29;20111;-77
2022/03/13 18:39:42;;;;;;;131.95;75.30;;;77.60;2227.20;;;;;;4901453;29;20024;-76
2022/03/13 18:42:08;;;;;;;100.40;63.28;;;77.60;2227.20;;;;;;4903155;29;20028;-78
2022/03/13 18:44:38;;;;;;;148.60;92.40;;;77.60;2227.20;;;;;;4903110;29;20075;-77
2022/03/13 18:47:04;;;;;;;189.52;115.32;;;77.60;2227.20;;;;;;4902753;29;20481;-75
2022/03/13 18:49:31;;;;;;;208.85;123.53;;;77.50;2227.20;;;;;;4903141;29;20020;-77
2022/03/13 18:51:57;;;;;;;161.73;103.00;;;77.30;2227.20;;;;;;4920004;29;20039;-76
2022/03/13 18:54:23;;;;;;;143.30;89.80;;;77.40;2227.20;;;;;;4902683;29;20030;-73
2022/03/13 18:56:49;;;;;;;176.80;93.65;;;77.30;2227.20;;;;;;4902784;29;20028;-75
2022/03/13 18:59:16;;;;;;;259.33;126.18;;;77.20;2227.20;;;;;;4902514;29;20028;-75
2022/03/13 19:01:44;;;;;;;268.48;133.07;;;77.20;2227.20;;;;;;4902522;29;20055;-79
2022/03/13 19:04:10;;;;;;;137.35;70.70;;;77.20;2227.20;;;;;;4919998;29;20049;-79
2022/03/13 19:06:36;;;;;;;93.30;54.20;;;77.20;2227.20;;;;;;4902420;29;20029;-73
2022/03/13 19:09:03;;;;;;;102.15;53.33;;;77.20;2227.20;;;;;;4902852;29;20020;-75
2022/03/13 19:11:31;;;;;;;117.82;60.72;;;77.10;2227.20;;;;;;4902581;29;20042;-75
2022/03/13 19:13:57;;;;;;;92.32;57.53;;;77.10;2227.20;;;;;;4919009;29;20028;-76
2022/03/13 19:16:22;;;;;;;85.65;56.25;;;77.10;2227.20;;;;;;4902624;29;20116;-74
2022/03/13 19:18:52;;;;;;;86.90;58.03;;;77.10;2227.20;;;;;;4902485;29;20374;-74
2022/03/13 19:21:18;;;;;;;92.47;60.25;;;77.10;2227.20;;;;;;4902225;29;20032;-73
2022/03/13 19:23:44;;;;;;;122.75;77.22;;;77.00;2227.20;;;;;;4919191;29;20030;-77
2022/03/13 19:26:10;;;;;;;149.57;92.95;;;77.00;2227.20;;;;;;4902053;29;20024;-77
2022/03/13 19:28:36;;;;;;;161.13;104.20;;;76.90;2227.20;;;;;;4902084;29;20028;-73
2022/03/13 19:31:03;;;;;;;187.07;116.90;;;76.90;2227.20;;;;;;4902163;29;20344;-77
2022/03/13 19:33:30;;;;;;;152.75;93.72;;;77.10;2227.20;;;;;;4902168;29;20031;-74
2022/03/13 19:35:56;;;;;;;174.23;107.68;;;76.90;2227.20;;;;;;4918665;29;20056;-73
2022/03/13 19:38:22;;;;;;;219.45;137.73;;;76.90;2227.20;;;;;;4902166;29;20115;-76
2022/03/13 19:40:48;;;;;;;246.20;155.93;;;76.90;2227.20;;;;;;4918862;29;20021;-74
2022/03/13 19:43:14;;;;;;;233.30;150.52;;;76.90;2227.20;;;;;;4901803;29;20035;-73
2022/03/13 19:45:40;;;;;;;267.90;172.45;;;76.80;2227.20;;;;;;4902219;29;20032;-81
2022/03/13 19:48:07;;;;;;;428.77;289.85;;;52.10;2227.20;;;;;;4901570;29;20473;-78
2022/03/13 19:50:34;;;;;;;377.80;250.65;;;52.00;2227.20;;;;;;4901530;29;20028;-76
2022/03/13 19:53:01;;;;;;;352.48;234.13;;;52.00;2227.20;;;;;;4901858;29;20032;-79
2022/03/13 19:55:27;;;;;;;295.92;195.57;;;52.10;2227.20;;;;;;4918722;29;20047;-77
2022/03/13 19:57:53;;;;;;;271.98;177.20;;;52.10;2227.20;;;;;;4901958;29;20080;-81
2022/03/13 20:00:20;;;;;;;255.55;159.90;;;52.00;2227.20;;;;;;4901864;29;20061;-80
2022/03/13 20:02:50;;;;;;;259.02;157.57;;;52.00;2227.20;;;;;;4918648;29;20044;-77
2022/03/13 20:05:20;;;;;;;277.58;169.15;;;52.00;2227.20;;;;;;4901705;29;20020;-80
2022/03/13 20:07:46;;;;;;;278.67;165.40;;;52.10;2227.20;;;;;;4901778;29;20024;-80
2022/03/13 20:10:12;;;;;;;246.07;156.05;;;52.00;2227.20;;;;;;4901361;29;20478;-79
2022/03/13 20:12:39;;;;;;;232.30;149.55;;;51.90;2227.20;;;;;;4901578;29;20100;-79
2022/03/13 20:15:07;;;;;;;224.18;144.18;;;51.80;2227.20;;;;;;4901592;29;20099;-81
2022/03/13 20:17:34;;;;;;;258.40;156.68;;;51.90;2227.20;;;;;;4901332;29;20031;-82
2022/03/13 20:20:02;;;;;;;321.73;183.55;;;51.70;2227.20;;;;;;4901564;29;20048;-80
2022/03/13 20:22:28;;;;;;;263.73;164.10;;;51.80;2227.20;;;;;;4901341;29;20471;-79
2022/03/13 20:24:54;;;;;;;289.58;184.10;;;51.70;2227.20;;;;;;4901162;29;20024;-79
2022/03/13 20:27:20;;;;;;;238.82;148.85;;;51.70;2227.20;;;;;;4901228;29;20028;-76
2022/03/13 20:29:46;;;;;;;242.05;143.93;;;51.60;2227.20;;;;;;4901724;29;20024;-80
2022/03/13 20:32:12;;;;;;;262.10;157.60;;;51.60;2227.20;;;;;;4917873;29;20115;-80
2022/03/13 20:34:38;;;;;;;266.73;167.77;;;51.60;2227.20;;;;;;4901223;29;20028;-78
2022/03/13 20:37:04;;;;;;;285.70;185.25;;;51.50;2227.20;;;;;;4900860;29;20028;-79
2022/03/13 20:39:30;;;;;;;239.05;147.38;;;51.40;2227.20;;;;;;4901218;29;20028;-78
2022/03/13 20:41:56;;;;;;;219.00;143.98;;;51.40;2227.20;;;;;;4917735;29;20035;-79
2022/03/13 20:44:23;;;;;;;232.30;148.48;;;51.50;2227.20;;;;;;4900747;29;20028;-79
2022/03/13 20:46:49;;;;;;;265.92;168.98;;;51.40;2227.20;;;;;;4900999;29;20055;-79
2022/03/13 20:49:17;;;;;;;254.32;177.13;;;51.20;2227.20;;;;;;4900977;29;20043;-81
2022/03/13 20:51:51;;;;;;;270.55;175.38;;;51.20;2227.20;;;;;;4917543;29;20028;-80
2022/03/13 20:54:19;;;;;;;250.85;170.15;;;51.30;2227.20;;;;;;4900956;29;20454;-78
2022/03/13 20:56:45;;;;;;;294.58;192.13;;;51.30;2227.20;;;;;;4917560;29;20496;-80
2022/03/13 20:59:13;;;;;;;332.42;206.93;;;51.70;2227.20;;;;;;4900603;29;20028;-81
2022/03/13 21:01:41;;;;;;;308.52;201.50;;;51.20;2227.20;;;;;;4899829;29;20135;-80
2022/03/13 21:04:08;;;;;;;335.73;213.65;;;51.20;2227.20;;;;;;4900740;29;20478;-80
2022/03/13 21:06:34;;;;;;;367.02;213.68;;;51.20;2227.20;;;;;;4900210;29;20031;-82
2022/03/13 21:09:01;;;;;;;416.73;223.75;;;51.20;2227.20;;;;;;4900777;29;20024;-77
2022/03/13 21:11:39;;;;;;;284.95;161.73;;;51.20;2227.20;;;;;;4900528;29;20072;-82
2022/03/13 21:14:18;;;;;;;270.65;165.80;;;51.20;2227.20;;;;;;4900358;29;20024;-78
2022/03/13 21:16:46;;;;;;;327.33;191.20;;;26.50;2201.60;;;;;;4900601;29;20024;-78
2022/03/13 21:19:14;;;;;;;408.73;245.77;;;26.40;2201.60;;;;;;4900406;29;20447;-80
2022/03/13 21:21:40;;;;;;;436.00;268.95;;;26.40;2201.60;;;;;;4900550;29;20087;-79
2022/03/13 21:24:08;;;;;;;444.83;268.42;;;26.40;2201.60;;;;;;4900574;29;20024;-78
2022/03/13 21:26:34;;;;;;;371.65;231.90;;;26.50;2201.60;;;;;;4900296;29;20122;-81
2022/03/13 21:29:01;;;;;;;439.83;268.73;;;26.40;2201.60;;;;;;4900586;29;20035;-80
2022/03/13 21:31:49;;;;;;;407.08;254.48;;;26.40;2201.60;;;;;;4900518;29;20419;-81
2022/03/13 21:34:15;;;;;;;432.35;263.58;;;26.30;2201.60;;;;;;4900118;29;20059;-82
2022/03/13 21:36:41;;;;;;;407.17;256.52;;;26.40;2201.60;;;;;;4900617;29;20071;-77
2022/03/13 21:39:09;;;;;;;423.48;263.95;;;26.30;2201.60;;;;;;4900416;29;20028;-75
2022/03/13 21:41:35;;;;;;;455.17;289.33;;;26.40;2201.60;;;;;;4900243;29;20055;-78
2022/03/13 21:44:01;;;;;;;476.70;293.80;;;26.50;2201.60;;;;;;4900115;29;20142;-81
2022/03/13 21:46:27;;;;;;;546.55;337.80;;;26.40;2201.60;;;;;;4900352;29;20034;-81
2022/03/13 21:48:53;;;;;;;467.13;277.65;;;26.40;2201.60;;;;;;4900057;29;20042;-79
2022/03/13 21:51:19;;;;;;;449.48;268.25;;;26.40;2201.60;;;;;;4900261;29;20513;-77
2022/03/13 21:53:45;;;;;;;442.05;263.90;;;26.30;2201.60;;;;;;4900182;29;20482;-76
2022/03/13 21:56:11;;;;;;;386.02;231.40;;;26.30;2201.60;;;;;;4899873;29;20024;-79
2022/03/13 21:58:37;;;;;;;340.75;198.27;;;26.30;2201.60;;;;;;4900342;29;20043;-76
2022/03/13 22:01:04;;;;;;;307.85;187.20;;;26.10;2201.60;;;;;;4899599;29;20095;-80
2022/03/13 22:03:29;;;;;;;308.10;186.90;;;26.10;2201.60;;;;;;4900213;29;20352;-76
2022/03/13 22:05:55;;;;;;;328.75;194.02;;;26.20;2201.60;;;;;;4900273;29;20031;-80
2022/03/13 22:08:22;;;;;;;121.25;73.93;;;26.30;2201.60;;;;;;4900099;29;20028;-81
2022/03/13 22:10:49;;;;;;;113.53;65.93;;;26.00;2201.60;;;;;;4900251;29;20122;-78
2022/03/13 22:13:18;;;;;;;156.65;89.15;;;26.00;2201.60;;;;;;4901671;29;20032;-82
2022/03/13 22:15:48;;;;;;;184.93;106.22;;;26.00;2201.60;;;;;;4903679;29;20028;-82
2022/03/13 22:18:16;;;;;;;195.65;103.82;;;25.90;2201.60;;;;;;4921030;29;20027;-81
2022/03/13 22:20:42;;;;;;;161.93;94.30;;;25.90;2201.60;;;;;;4903914;29;20020;-82
2022/03/13 22:23:08;;;;;;;189.20;112.78;;;25.80;2201.60;;;;;;4903765;29;20162;-81
2022/03/13 22:25:37;;;;;;;201.32;113.88;;;25.80;2201.60;;;;;;4903710;29;20090;-79
2022/03/13 22:28:04;;;;;;;230.95;132.68;;;25.90;2201.60;;;;;;4903842;29;20024;-79
2022/03/13 22:30:31;;;;;;;193.38;111.75;;;25.80;2201.60;;;;;;4920942;29;20048;-80
2022/03/13 22:32:56;;;;;;;197.20;110.45;;;25.70;2201.60;;;;;;4926060;29;20028;-83
2022/03/13 22:35:23;;;;;;;216.00;118.40;;;25.60;2201.60;;;;;;4911126;29;20466;-84
2022/03/13 22:37:52;;;;;;;201.30;113.85;;;25.60;2201.60;;;;;;4904873;29;20518;-80
2022/03/13 22:40:19;;;;;;;182.13;103.07;;;25.60;2201.60;;;;;;4903940;29;20027;-80
2022/03/13 22:42:45;;;;;;;98.30;55.00;;;25.70;2201.60;;;;;;4920425;29;20107;-80
2022/03/13 22:45:11;;;;;;;99.72;61.15;;;25.60;2201.60;;;;;;4903030;29;20086;-83
2022/03/13 22:47:40;;;;;;;121.75;65.25;;;25.60;2201.60;;;;;;4903326;29;20173;-79
2022/03/13 22:50:14;;;;;;;191.68;104.10;;;25.60;2201.60;;;;;;4902925;29;20087;-81
2022/03/13 22:52:42;;;;;;;150.68;81.97;;;0.90;2201.60;;;;;;4903038;29;20371;-82
2022/03/13 22:55:12;;;;;;;161.77;92.38;;;0.90;2201.60;;;;;;4903052;29;20032;-82
2022/03/13 22:57:40;;;;;;;197.98;88.68;;;0.80;2201.60;;;;;;4902749;29;20031;-83
2022/03/13 23:00:15;;;;;;;257.52;116.68;;;0.70;2201.60;;;;;;4903047;29;20076;-79
2022/03/13 23:02:42;;;;;;;186.32;95.80;;;0.80;2201.60;;;;;;4902685;29;20498;-81
2022/03/13 23:05:09;;;;;;;176.88;96.28;;;0.80;2201.60;;;;;;4902428;29;20115;-84
2022/03/13 23:07:37;;;;;;;191.73;102.70;;;0.70;2201.60;;;;;;4902833;29;20031;-80
2022/03/13 23:10:04;;;;;;;190.93;98.53;;;0.80;2201.60;;;;;;4902771;29;20024;-79
2022/03/13 23:12:36;;;;;;;224.88;108.85;;;0.60;2201.60;;;;;;4902300;29;20123;-83
2022/03/13 23:15:03;;;;;;;223.38;127.43;;;0.70;2201.60;;;;;;4919928;29;20477;-76
2022/03/13 23:17:31;;;;;;;218.48;124.95;;;0.60;2201.60;;;;;;4902227;29;20032;-76
2022/03/13 23:20:00;;;;;;;291.27;154.18;;;0.60;2201.60;;;;;;4901958;29;20111;-79
2022/03/13 23:22:42;;;;;;;224.30;113.88;;;0.60;2201.60;;;;;;4902536;29;20079;-77
2022/03/13 23:25:08;;;;;;;216.63;109.88;;;0.50;2201.60;;;;;;4901338;29;20044;-77